createdAt,value
2022-12-15T00:00:19.474Z,100603.69
2022-12-15T00:03:07.648Z,100600.44
2022-12-15T00:05:56.400Z,100598.72
2022-12-15T00:08:42.200Z,100600.44
2022-12-15T00:11:28.332Z,100609.19
2022-12-15T00:14:14.274Z,100601.38
2022-12-15T00:17:00.884Z,100591.81
2022-12-15T00:19:47.501Z,100601.59
2022-12-15T00:22:35.488Z,100596.56
2022-12-15T00:25:21.416Z,100601.06
2022-12-15T00:28:07.262Z,100594.91
2022-12-15T00:30:57.570Z,100596.69
2022-12-15T00:33:48.749Z,100597.72
2022-12-15T00:36:34.355Z,100599.56
2022-12-15T00:39:05.568Z,100606.63
2022-12-15T00:41:34.427Z,100603.94
2022-12-15T00:44:03.005Z,100604.59
2022-12-15T00:46:52.473Z,100606.47
2022-12-15T00:49:38.577Z,100604.78
2022-12-15T00:52:24.718Z,100597.00
2022-12-15T00:55:12.629Z,100604.06
2022-12-15T00:57:58.596Z,100599.72
2022-12-15T01:00:44.439Z,100599.00
2022-12-15T01:03:32.226Z,100603.53
2022-12-15T01:06:18.918Z,100603.66
2022-12-15T01:09:05.099Z,100614.28
2022-12-15T01:11:52.429Z,100618.78
2022-12-15T01:14:38.011Z,100619.78
2022-12-15T01:17:23.574Z,100623.63
2022-12-15T01:20:09.385Z,100634.34
2022-12-15T01:22:38.374Z,100629.34
2022-12-15T01:25:08.116Z,100631.22
2022-12-15T01:27:37.748Z,100633.09
2022-12-15T01:30:07.983Z,100620.81
2022-12-15T01:32:38.520Z,100618.47
2022-12-15T01:35:11.220Z,100620.34
2022-12-15T01:37:42.881Z,100624.88
2022-12-15T01:40:34.239Z,100614.56
2022-12-15T01:43:04.534Z,100621.97
2022-12-15T01:46:08.737Z,100617.78
2022-12-15T01:48:42.788Z,100617.19
2022-12-15T01:51:26.766Z,100629.53
2022-12-15T01:54:03.703Z,100623.59
2022-12-15T01:56:37.624Z,100621.94
2022-12-15T01:59:12.222Z,100627.31
2022-12-15T02:01:40.655Z,100632.72
2022-12-15T02:04:10.287Z,100630.31
2022-12-15T02:06:38.775Z,100633.91
2022-12-15T02:09:08.371Z,100634.94
2022-12-15T02:11:59.578Z,100637.69
2022-12-15T02:14:47.041Z,100635.19
2022-12-15T02:17:27.852Z,100637.13
2022-12-15T02:20:25.443Z,100638.00
2022-12-15T02:23:15.117Z,100646.19
2022-12-15T02:26:01.617Z,100635.00
2022-12-15T02:28:43.899Z,100634.22
2022-12-15T02:31:35.229Z,100640.56
2022-12-15T02:34:10.565Z,100645.94
2022-12-15T02:36:44.659Z,100645.16
2022-12-15T02:39:13.974Z,100652.22
2022-12-15T02:41:44.210Z,100654.88
2022-12-15T02:44:15.784Z,100652.41
2022-12-15T02:47:03.452Z,100656.00
2022-12-15T02:49:41.952Z,100661.34
2022-12-15T02:52:24.454Z,100658.84
2022-12-15T02:55:06.000Z,100650.00
2022-12-15T02:57:43.670Z,100653.53
2022-12-15T03:00:14.139Z,100660.53
2022-12-15T03:02:48.084Z,100650.00
2022-12-15T03:05:18.392Z,100645.63
2022-12-15T03:07:49.840Z,100647.34
2022-12-15T03:10:19.251Z,100659.50
2022-12-15T03:12:47.803Z,100663.88
2022-12-15T03:15:15.919Z,100654.19
2022-12-15T03:17:45.545Z,100648.91
2022-12-15T03:20:14.510Z,100652.41
2022-12-15T03:22:43.163Z,100655.97
2022-12-15T03:25:12.094Z,100648.91
2022-12-15T03:27:40.457Z,100648.91
2022-12-15T03:30:10.182Z,100648.97
2022-12-15T03:32:38.545Z,100656.66
2022-12-15T03:35:09.681Z,100661.00
2022-12-15T03:37:37.843Z,100652.25
2022-12-15T03:40:07.437Z,100652.13
2022-12-15T03:42:51.531Z,100664.38
2022-12-15T03:45:22.153Z,100665.16
2022-12-15T03:47:54.723Z,100659.75
2022-12-15T03:50:26.950Z,100661.47
2022-12-15T03:52:57.687Z,100669.22
2022-12-15T03:55:26.772Z,100670.00
2022-12-15T03:57:54.855Z,100674.31
2022-12-15T04:00:24.564Z,100669.16
2022-12-15T04:02:53.005Z,100668.19
2022-12-15T04:05:26.002Z,100675.16
2022-12-15T04:07:57.161Z,100679.69
2022-12-15T04:10:31.951Z,100678.72
2022-12-15T04:13:03.975Z,100682.28
2022-12-15T04:15:32.189Z,100683.16
2022-12-15T04:18:00.384Z,100679.84
2022-12-15T04:20:30.426Z,100683.41
2022-12-15T04:22:58.640Z,100675.53
2022-12-15T04:25:44.789Z,100674.69
2022-12-15T04:28:30.993Z,100673.06
2022-12-15T04:31:20.005Z,100673.19
2022-12-15T04:34:08.492Z,100669.81
2022-12-15T04:37:06.898Z,100661.16
2022-12-15T04:39:53.839Z,100662.13
2022-12-15T04:42:39.663Z,100663.88
2022-12-15T04:45:28.219Z,100667.53
2022-12-15T04:48:14.186Z,100662.28
2022-12-15T04:50:59.657Z,100658.78
2022-12-15T04:53:46.686Z,100662.31
2022-12-15T04:56:34.049Z,100671.06
2022-12-15T04:59:20.254Z,100662.47
2022-12-15T05:02:07.407Z,100664.28
2022-12-15T05:04:53.443Z,100659.00
2022-12-15T05:07:39.660Z,100663.50
2022-12-15T05:10:27.949Z,100665.50
2022-12-15T05:13:13.355Z,100668.19
2022-12-15T05:16:00.285Z,100678.09
2022-12-15T05:18:45.660Z,100668.63
2022-12-15T05:21:31.121Z,100671.25
2022-12-15T05:24:16.482Z,100677.50
2022-12-15T05:27:03.308Z,100675.00
2022-12-15T05:29:48.726Z,100673.22
2022-12-15T05:32:17.522Z,100672.38
2022-12-15T05:34:45.557Z,100667.00
2022-12-15T05:37:13.763Z,100672.19
2022-12-15T05:39:42.543Z,100671.25
2022-12-15T05:42:12.218Z,100674.72
2022-12-15T05:44:40.939Z,100669.47
2022-12-15T05:47:09.531Z,100667.84
2022-12-15T05:49:37.659Z,100668.75
2022-12-15T05:52:08.010Z,100675.91
2022-12-15T05:54:36.190Z,100670.84
2022-12-15T05:57:04.734Z,100670.00
2022-12-15T05:59:34.932Z,100671.84
2022-12-15T06:02:03.614Z,100670.06
2022-12-15T06:04:33.649Z,100669.16
2022-12-15T06:07:02.771Z,100683.16
2022-12-15T06:09:30.818Z,100680.59
2022-12-15T06:12:07.458Z,100685.88
2022-12-15T06:14:39.813Z,100683.41
2022-12-15T06:17:08.457Z,100682.56
2022-12-15T06:19:39.917Z,100690.44
2022-12-15T06:22:08.253Z,100688.53
2022-12-15T06:24:41.717Z,100685.97
2022-12-15T06:27:12.963Z,100697.06
2022-12-15T06:30:27.795Z,100695.38
2022-12-15T06:36:11.565Z,100702.34
2022-12-15T06:38:43.664Z,100704.06
2022-12-15T06:41:13.771Z,100707.59
2022-12-15T06:43:45.794Z,100705.03
2022-12-15T06:46:14.164Z,100702.41
2022-12-15T06:48:45.109Z,100706.94
2022-12-15T06:51:35.158Z,100695.75
2022-12-15T06:54:06.701Z,100694.03
2022-12-15T06:56:42.604Z,100703.81
2022-12-15T07:04:43.642Z,100702.28
2022-12-15T07:07:16.285Z,100705.94
2022-12-15T07:09:44.841Z,100693.06
2022-12-15T07:12:14.362Z,100707.06
2022-12-15T07:14:51.583Z,100703.69
2022-12-15T07:17:25.875Z,100701.97
2022-12-15T07:19:55.399Z,100695.78
2022-12-15T07:22:27.344Z,100685.34
2022-12-15T07:24:56.233Z,100698.44
2022-12-15T07:30:00.927Z,100695.13
2022-12-15T07:32:31.028Z,100695.13
2022-12-15T07:38:27.353Z,100695.19
2022-12-15T08:47:13.230Z,100760.56
2022-12-15T10:56:34.641Z,100842.50
2022-12-15T11:22:04.526Z,100834.06
2022-12-15T12:09:40.682Z,100834.47
2022-12-15T12:12:22.272Z,100828.81
2022-12-15T13:58:46.763Z,100808.38
2022-12-15T15:57:22.323Z,100842.41
2022-12-15T16:00:02.494Z,100843.53
2022-12-15T16:05:33.037Z,100868.53
2022-12-15T16:08:14.560Z,100864.72
2022-12-15T16:47:30.147Z,100880.06
2022-12-15T16:52:46.172Z,100884.44
2022-12-15T16:55:26.820Z,100873.59
2022-12-15T16:57:57.523Z,100886.41
2022-12-15T17:00:28.788Z,100879.03
2022-12-15T17:02:59.080Z,100884.69
2022-12-15T17:05:29.216Z,100888.69
2022-12-15T17:07:59.969Z,100891.63
2022-12-15T17:10:30.298Z,100887.59
2022-12-15T17:13:05.151Z,100894.25
2022-12-15T17:15:33.368Z,100896.38
2022-12-15T17:18:03.062Z,100902.06
2022-12-15T17:20:31.672Z,100909.34
2022-12-15T17:23:03.745Z,100909.63
2022-12-15T17:26:18.132Z,100901.06
2022-12-15T17:28:28.160Z,100910.19
2022-12-15T17:30:56.602Z,100914.75
2022-12-15T17:33:27.934Z,100904.41
2022-12-15T17:35:57.710Z,100909.94
2022-12-15T17:38:31.502Z,100918.88
2022-12-15T17:40:59.980Z,100918.25
2022-12-15T17:43:35.422Z,100926.31
2022-12-15T17:46:04.580Z,100926.44
2022-12-15T17:48:34.639Z,100930.94
2022-12-15T17:51:03.743Z,100934.56
2022-12-15T17:53:32.532Z,100927.66
2022-12-15T17:56:04.438Z,100937.25
2022-12-15T17:58:38.813Z,100940.63
2022-12-15T18:01:07.748Z,100943.28
2022-12-15T18:03:38.596Z,100942.41
2022-12-15T18:06:08.656Z,100943.47
2022-12-15T18:08:38.872Z,100946.31
2022-12-15T18:11:32.411Z,100948.13
2022-12-15T18:14:04.510Z,100953.41
2022-12-15T18:16:48.389Z,100952.44
2022-12-15T18:19:35.189Z,100954.25
2022-12-15T18:22:09.315Z,100956.88
2022-12-15T18:24:39.517Z,100964.94
2022-12-15T18:33:51.968Z,100959.13
2022-12-15T18:36:27.263Z,100953.75
2022-12-15T18:38:56.204Z,100963.28
2022-12-15T18:41:24.844Z,100966.84
2022-12-15T18:43:57.525Z,100969.84
2022-12-15T18:46:27.056Z,100982.47
2022-12-15T18:48:56.871Z,100983.66
2022-12-15T18:51:45.182Z,100984.84
2022-12-15T18:54:18.385Z,100985.84
2022-12-15T18:56:47.402Z,100986.13
2022-12-15T18:59:18.048Z,100985.47
2022-12-15T19:01:47.706Z,100995.34
2022-12-15T19:04:17.647Z,100985.72
2022-12-15T19:07:06.785Z,101000.63
2022-12-15T19:09:38.654Z,100996.13
2022-12-15T19:12:30.384Z,101006.66
2022-12-15T19:14:59.122Z,101003.25
2022-12-15T19:17:44.980Z,101001.53
2022-12-15T19:20:35.292Z,101010.47
2022-12-15T19:23:07.095Z,101011.59
2022-12-15T19:38:29.425Z,101028.53
2022-12-15T20:12:33.582Z,101059.44
2022-12-15T20:15:04.443Z,101057.91
2022-12-15T20:20:50.179Z,101062.69
2022-12-15T20:26:36.933Z,101060.22
2022-12-15T20:29:15.776Z,101067.31
2022-12-15T20:34:59.498Z,101070.56
2022-12-15T20:37:34.160Z,101071.75
2022-12-15T20:40:12.123Z,101083.22
2022-12-15T20:42:41.741Z,101083.25
2022-12-15T20:45:16.763Z,101083.31
2022-12-15T20:50:52.264Z,101079.38
2022-12-15T20:53:27.204Z,101085.63
2022-12-15T20:56:38.931Z,101083.16
2022-12-15T20:59:09.603Z,101094.53
2022-12-15T21:01:41.255Z,101097.19
2022-12-15T21:04:40.650Z,101084.03
2022-12-15T21:07:27.266Z,101086.50
2022-12-15T21:09:55.839Z,101101.19
2022-12-15T21:12:28.304Z,101100.31
2022-12-15T21:14:57.031Z,101102.03
2022-12-15T21:17:28.428Z,101112.66
2022-12-15T21:19:57.455Z,101100.41
2022-12-15T21:22:28.507Z,101105.81
2022-12-15T21:24:59.502Z,101106.66
2022-12-15T21:27:30.269Z,101110.25
2022-12-15T21:30:02.150Z,101106.06
2022-12-15T21:32:39.428Z,101113.06
2022-12-15T21:35:09.222Z,101107.91
2022-12-15T21:37:38.459Z,101112.38
2022-12-15T21:40:08.150Z,101117.63
2022-12-15T21:42:37.918Z,101125.41
2022-12-15T21:45:14.505Z,101124.59
2022-12-15T21:48:02.116Z,101129.81
2022-12-15T21:50:30.837Z,101131.59
2022-12-15T21:52:59.351Z,101127.25
2022-12-15T21:55:30.380Z,101130.78
2022-12-15T21:58:00.080Z,101125.53
2022-12-15T22:00:45.692Z,101129.97
2022-12-15T22:03:42.196Z,101125.75
2022-12-15T22:06:19.650Z,101128.41
2022-12-15T22:08:50.851Z,101137.25
2022-12-15T22:11:45.007Z,101131.16
2022-12-15T22:44:02.794Z,101147.63
2022-12-15T22:46:39.218Z,101154.53
2022-12-15T23:13:27.160Z,101166.19
2022-12-15T23:16:13.624Z,101160.91
2022-12-15T23:18:42.393Z,101162.72
2022-12-15T23:21:11.272Z,101151.25
2022-12-15T23:23:43.529Z,101151.25
2022-12-15T23:26:13.163Z,101151.13
2022-12-15T23:28:44.452Z,101146.78
2022-12-15T23:31:14.947Z,101143.16
2022-12-15T23:33:43.802Z,101146.56
2022-12-15T23:36:13.573Z,101148.38
2022-12-15T23:44:57.710Z,101153.28
2022-12-15T23:53:17.091Z,101169.00
2022-12-15T23:55:48.163Z,101172.56
2022-12-15T23:58:16.375Z,101168.16
